sensor_id;sensor_type;location;lat;lon;timestamp;P1;durP1;ratioP1;P2;durP2;ratioP2
3653;SDS011;70277;54.302;10.064;2024-02-23T00:00:35;0.50;;;0.50;;
3653;SDS011;70277;54.302;10.064;2024-02-23T00:03:02;2.40;;;0.40;;
3653;SDS011;70277;54.302;10.064;2024-02-23T00:05:28;1.67;;;0.35;;
3653;SDS011;70277;54.302;10.064;2024-02-23T00:07:55;1.15;;;0.40;;
3653;SDS011;70277;54.302;10.064;2024-02-23T00:10:21;3.35;;;0.50;;
3653;SDS011;70277;54.302;10.064;2024-02-23T00:12:48;1.75;;;0.30;;
3653;SDS011;70277;54.302;10.064;2024-02-23T00:15:14;0.68;;;0.20;;
3653;SDS011;70277;54.302;10.064;2024-02-23T00:17:41;2.42;;;0.40;;
3653;SDS011;70277;54.302;10.064;2024-02-23T00:20:08;1.85;;;0.32;;
3653;SDS011;70277;54.302;10.064;2024-02-23T00:25:05;2.17;;;0.60;;
3653;SDS011;70277;54.302;10.064;2024-02-23T00:27:31;0.50;;;0.30;;
3653;SDS011;70277;54.302;10.064;2024-02-23T00:29:58;0.47;;;0.30;;
3653;SDS011;70277;54.302;10.064;2024-02-23T00:32:25;0.47;;;0.20;;
3653;SDS011;70277;54.302;10.064;2024-02-23T00:34:51;0.65;;;0.30;;
3653;SDS011;70277;54.302;10.064;2024-02-23T00:37:18;2.75;;;0.32;;
3653;SDS011;70277;54.302;10.064;2024-02-23T00:39:44;1.88;;;0.40;;
3653;SDS011;70277;54.302;10.064;2024-02-23T00:42:10;1.67;;;0.50;;
3653;SDS011;70277;54.302;10.064;2024-02-23T00:44:37;0.60;;;0.35;;
3653;SDS011;70277;54.302;10.064;2024-02-23T00:47:04;0.43;;;0.32;;
3653;SDS011;70277;54.302;10.064;2024-02-23T00:49:30;0.30;;;0.30;;
3653;SDS011;70277;54.302;10.064;2024-02-23T00:51:57;2.20;;;0.40;;
3653;SDS011;70277;54.302;10.064;2024-02-23T00:54:23;4.15;;;0.93;;
3653;SDS011;70277;54.302;10.064;2024-02-23T00:56:50;0.50;;;0.40;;
3653;SDS011;70277;54.302;10.064;2024-02-23T00:59:20;4.28;;;0.55;;
3653;SDS011;70277;54.302;10.064;2024-02-23T01:01:47;0.20;;;0.20;;
3653;SDS011;70277;54.302;10.064;2024-02-23T01:04:14;0.55;;;0.30;;
3653;SDS011;70277;54.302;10.064;2024-02-23T01:06:40;0.20;;;0.20;;
3653;SDS011;70277;54.302;10.064;2024-02-23T01:09:07;0.30;;;0.30;;
3653;SDS011;70277;54.302;10.064;2024-02-23T01:11:33;1.13;;;0.30;;
3653;SDS011;70277;54.302;10.064;2024-02-23T01:14:00;3.35;;;0.20;;
3653;SDS011;70277;54.302;10.064;2024-02-23T01:16:27;2.85;;;0.30;;
3653;SDS011;70277;54.302;10.064;2024-02-23T01:18:53;0.20;;;0.20;;
3653;SDS011;70277;54.302;10.064;2024-02-23T01:21:20;1.88;;;0.20;;
3653;SDS011;70277;54.302;10.064;2024-02-23T01:23:46;0.22;;;0.15;;
3653;SDS011;70277;54.302;10.064;2024-02-23T01:26:13;1.10;;;0.57;;
3653;SDS011;70277;54.302;10.064;2024-02-23T01:28:39;3.55;;;0.20;;
3653;SDS011;70277;54.302;10.064;2024-02-23T01:31:09;0.75;;;0.20;;
3653;SDS011;70277;54.302;10.064;2024-02-23T01:36:04;0.20;;;0.10;;
3653;SDS011;70277;54.302;10.064;2024-02-23T01:38:32;0.10;;;0.10;;
3653;SDS011;70277;54.302;10.064;2024-02-23T01:40:59;2.17;;;0.40;;
3653;SDS011;70277;54.302;10.064;2024-02-23T01:43:26;2.83;;;0.20;;
3653;SDS011;70277;54.302;10.064;2024-02-23T01:45:53;2.05;;;0.30;;
3653;SDS011;70277;54.302;10.064;2024-02-23T01:48:20;0.22;;;0.13;;
3653;SDS011;70277;54.302;10.064;2024-02-23T01:50:47;1.45;;;0.10;;
3653;SDS011;70277;54.302;10.064;2024-02-23T01:53:14;0.75;;;0.25;;
3653;SDS011;70277;54.302;10.064;2024-02-23T01:55:41;0.10;;;0.10;;
3653;SDS011;70277;54.302;10.064;2024-02-23T01:58:08;0.25;;;0.13;;
3653;SDS011;70277;54.302;10.064;2024-02-23T02:00:35;1.75;;;0.30;;
3653;SDS011;70277;54.302;10.064;2024-02-23T02:03:02;2.85;;;0.22;;
3653;SDS011;70277;54.302;10.064;2024-02-23T02:05:29;0.98;;;0.20;;
3653;SDS011;70277;54.302;10.064;2024-02-23T02:07:56;2.05;;;0.20;;
3653;SDS011;70277;54.302;10.064;2024-02-23T02:10:27;1.85;;;0.10;;
3653;SDS011;70277;54.302;10.064;2024-02-23T02:12:53;3.50;;;0.98;;
3653;SDS011;70277;54.302;10.064;2024-02-23T02:15:20;1.25;;;0.10;;
3653;SDS011;70277;54.302;10.064;2024-02-23T02:17:48;0.10;;;0.10;;
3653;SDS011;70277;54.302;10.064;2024-02-23T02:20:15;1.30;;;0.20;;
3653;SDS011;70277;54.302;10.064;2024-02-23T02:22:45;1.55;;;0.22;;
3653;SDS011;70277;54.302;10.064;2024-02-23T02:25:13;0.20;;;0.10;;
3653;SDS011;70277;54.302;10.064;2024-02-23T02:27:41;0.10;;;0.10;;
3653;SDS011;70277;54.302;10.064;2024-02-23T02:30:08;0.52;;;0.15;;
3653;SDS011;70277;54.302;10.064;2024-02-23T02:32:35;0.60;;;0.10;;
3653;SDS011;70277;54.302;10.064;2024-02-23T02:35:03;0.90;;;0.30;;
3653;SDS011;70277;54.302;10.064;2024-02-23T02:37:30;0.13;;;0.13;;
3653;SDS011;70277;54.302;10.064;2024-02-23T02:39:56;4.57;;;0.40;;
3653;SDS011;70277;54.302;10.064;2024-02-23T02:42:23;1.75;;;0.20;;
3653;SDS011;70277;54.302;10.064;2024-02-23T02:44:49;1.95;;;0.50;;
3653;SDS011;70277;54.302;10.064;2024-02-23T02:47:16;6.10;;;0.98;;
3653;SDS011;70277;54.302;10.064;2024-02-23T02:49:43;2.03;;;0.38;;
3653;SDS011;70277;54.302;10.064;2024-02-23T02:52:10;1.83;;;0.40;;
3653;SDS011;70277;54.302;10.064;2024-02-23T02:54:37;1.90;;;0.28;;
3653;SDS011;70277;54.302;10.064;2024-02-23T02:57:03;3.90;;;0.47;;
3653;SDS011;70277;54.302;10.064;2024-02-23T02:59:33;3.03;;;1.38;;
3653;SDS011;70277;54.302;10.064;2024-02-23T03:02:01;5.38;;;0.50;;
3653;SDS011;70277;54.302;10.064;2024-02-23T03:04:28;7.28;;;0.50;;
3653;SDS011;70277;54.302;10.064;2024-02-23T03:06:54;3.75;;;0.40;;
3653;SDS011;70277;54.302;10.064;2024-02-23T03:09:20;9.05;;;1.40;;
3653;SDS011;70277;54.302;10.064;2024-02-23T03:11:47;4.28;;;0.77;;
3653;SDS011;70277;54.302;10.064;2024-02-23T03:14:14;6.00;;;1.10;;
3653;SDS011;70277;54.302;10.064;2024-02-23T03:16:40;3.83;;;0.93;;
3653;SDS011;70277;54.302;10.064;2024-02-23T03:19:08;11.40;;;1.23;;
3653;SDS011;70277;54.302;10.064;2024-02-23T03:21:34;5.15;;;1.00;;
3653;SDS011;70277;54.302;10.064;2024-02-23T03:24:05;8.23;;;1.10;;
3653;SDS011;70277;54.302;10.064;2024-02-23T03:26:31;3.72;;;0.77;;
3653;SDS011;70277;54.302;10.064;2024-02-23T03:28:58;8.35;;;0.73;;
3653;SDS011;70277;54.302;10.064;2024-02-23T03:31:24;9.38;;;1.20;;
3653;SDS011;70277;54.302;10.064;2024-02-23T03:33:51;3.65;;;0.60;;
3653;SDS011;70277;54.302;10.064;2024-02-23T03:36:17;4.35;;;1.05;;
3653;SDS011;70277;54.302;10.064;2024-02-23T03:38:44;5.03;;;0.80;;
3653;SDS011;70277;54.302;10.064;2024-02-23T03:41:10;1.65;;;0.50;;
3653;SDS011;70277;54.302;10.064;2024-02-23T03:43:37;4.50;;;0.70;;
3653;SDS011;70277;54.302;10.064;2024-02-23T03:46:05;3.47;;;0.65;;
3653;SDS011;70277;54.302;10.064;2024-02-23T03:48:32;3.30;;;0.50;;
3653;SDS011;70277;54.302;10.064;2024-02-23T03:50:59;4.28;;;0.70;;
3653;SDS011;70277;54.302;10.064;2024-02-23T03:53:25;5.40;;;0.75;;
3653;SDS011;70277;54.302;10.064;2024-02-23T03:55:52;4.60;;;1.23;;
3653;SDS011;70277;54.302;10.064;2024-02-23T03:58:19;2.10;;;0.63;;
3653;SDS011;70277;54.302;10.064;2024-02-23T04:00:45;1.85;;;0.50;;
3653;SDS011;70277;54.302;10.064;2024-02-23T04:03:12;3.08;;;0.60;;
3653;SDS011;70277;54.302;10.064;2024-02-23T04:05:39;3.65;;;0.70;;
3653;SDS011;70277;54.302;10.064;2024-02-23T04:08:08;2.67;;;0.60;;
3653;SDS011;70277;54.302;10.064;2024-02-23T04:10:34;2.75;;;0.50;;
3653;SDS011;70277;54.302;10.064;2024-02-23T04:13:01;1.02;;;0.40;;
3653;SDS011;70277;54.302;10.064;2024-02-23T04:15:28;4.05;;;0.60;;
3653;SDS011;70277;54.302;10.064;2024-02-23T04:17:54;18.33;;;0.70;;
3653;SDS011;70277;54.302;10.064;2024-02-23T04:20:21;2.70;;;0.40;;
3653;SDS011;70277;54.302;10.064;2024-02-23T04:22:47;3.88;;;0.68;;
3653;SDS011;70277;54.302;10.064;2024-02-23T04:25:14;8.70;;;0.70;;
3653;SDS011;70277;54.302;10.064;2024-02-23T04:27:41;0.50;;;0.47;;
3653;SDS011;70277;54.302;10.064;2024-02-23T04:30:07;1.10;;;0.63;;
3653;SDS011;70277;54.302;10.064;2024-02-23T04:32:34;3.10;;;0.57;;
3653;SDS011;70277;54.302;10.064;2024-02-23T04:35:01;3.22;;;0.90;;
3653;SDS011;70277;54.302;10.064;2024-02-23T04:37:28;4.57;;;0.68;;
3653;SDS011;70277;54.302;10.064;2024-02-23T04:39:56;1.80;;;0.70;;
3653;SDS011;70277;54.302;10.064;2024-02-23T04:42:23;5.28;;;0.93;;
3653;SDS011;70277;54.302;10.064;2024-02-23T04:44:49;2.15;;;0.93;;
3653;SDS011;70277;54.302;10.064;2024-02-23T04:47:15;4.45;;;1.00;;
3653;SDS011;70277;54.302;10.064;2024-02-23T04:49:42;5.55;;;0.95;;
3653;SDS011;70277;54.302;10.064;2024-02-23T04:52:09;4.35;;;1.15;;
3653;SDS011;70277;54.302;10.064;2024-02-23T04:54:35;6.90;;;1.38;;
3653;SDS011;70277;54.302;10.064;2024-02-23T04:57:02;5.72;;;1.25;;
3653;SDS011;70277;54.302;10.064;2024-02-23T04:59:28;4.68;;;0.95;;
3653;SDS011;70277;54.302;10.064;2024-02-23T05:01:57;4.43;;;1.08;;
3653;SDS011;70277;54.302;10.064;2024-02-23T05:04:24;5.20;;;1.00;;
3653;SDS011;70277;54.302;10.064;2024-02-23T05:06:53;6.05;;;1.00;;
3653;SDS011;70277;54.302;10.064;2024-02-23T05:09:19;7.95;;;1.30;;
3653;SDS011;70277;54.302;10.064;2024-02-23T05:11:47;7.07;;;1.55;;
3653;SDS011;70277;54.302;10.064;2024-02-23T05:14:14;8.15;;;1.25;;
3653;SDS011;70277;54.302;10.064;2024-02-23T05:16:40;6.35;;;0.98;;
3653;SDS011;70277;54.302;10.064;2024-02-23T05:19:07;9.75;;;1.45;;
3653;SDS011;70277;54.302;10.064;2024-02-23T05:21:33;5.13;;;0.70;;
3653;SDS011;70277;54.302;10.064;2024-02-23T05:24:00;2.42;;;1.20;;
3653;SDS011;70277;54.302;10.064;2024-02-23T05:26:26;14.00;;;1.77;;
3653;SDS011;70277;54.302;10.064;2024-02-23T05:28:53;8.15;;;1.20;;
3653;SDS011;70277;54.302;10.064;2024-02-23T05:31:19;5.60;;;1.30;;
3653;SDS011;70277;54.302;10.064;2024-02-23T05:33:46;3.28;;;1.30;;
3653;SDS011;70277;54.302;10.064;2024-02-23T05:36:15;4.32;;;1.33;;
3653;SDS011;70277;54.302;10.064;2024-02-23T05:38:42;9.95;;;1.23;;
3653;SDS011;70277;54.302;10.064;2024-02-23T05:41:12;10.13;;;1.48;;
3653;SDS011;70277;54.302;10.064;2024-02-23T05:43:39;6.25;;;1.05;;
3653;SDS011;70277;54.302;10.064;2024-02-23T05:46:06;11.57;;;1.30;;
3653;SDS011;70277;54.302;10.064;2024-02-23T05:48:32;4.82;;;1.02;;
3653;SDS011;70277;54.302;10.064;2024-02-23T05:50:59;3.00;;;1.15;;
3653;SDS011;70277;54.302;10.064;2024-02-23T05:53:25;11.88;;;1.50;;
3653;SDS011;70277;54.302;10.064;2024-02-23T05:55:52;5.40;;;1.30;;
3653;SDS011;70277;54.302;10.064;2024-02-23T05:58:18;2.72;;;1.30;;
3653;SDS011;70277;54.302;10.064;2024-02-23T06:00:47;8.13;;;1.67;;
3653;SDS011;70277;54.302;10.064;2024-02-23T06:03:13;3.72;;;1.20;;
3653;SDS011;70277;54.302;10.064;2024-02-23T06:05:40;6.35;;;1.08;;
3653;SDS011;70277;54.302;10.064;2024-02-23T06:08:07;3.92;;;0.95;;
3653;SDS011;70277;54.302;10.064;2024-02-23T06:10:33;8.30;;;1.55;;
3653;SDS011;70277;54.302;10.064;2024-02-23T06:13:00;5.95;;;1.50;;
3653;SDS011;70277;54.302;10.064;2024-02-23T06:15:29;5.88;;;1.17;;
3653;SDS011;70277;54.302;10.064;2024-02-23T06:17:56;3.78;;;1.25;;
3653;SDS011;70277;54.302;10.064;2024-02-23T06:20:22;2.28;;;1.02;;
3653;SDS011;70277;54.302;10.064;2024-02-23T06:22:49;4.25;;;1.15;;
3653;SDS011;70277;54.302;10.064;2024-02-23T06:25:16;5.38;;;1.30;;
3653;SDS011;70277;54.302;10.064;2024-02-23T06:27:42;9.95;;;1.85;;
3653;SDS011;70277;54.302;10.064;2024-02-23T06:30:09;3.33;;;1.38;;
3653;SDS011;70277;54.302;10.064;2024-02-23T06:32:37;6.68;;;1.70;;
3653;SDS011;70277;54.302;10.064;2024-02-23T06:35:04;6.10;;;1.48;;
3653;SDS011;70277;54.302;10.064;2024-02-23T06:37:32;6.35;;;1.23;;
3653;SDS011;70277;54.302;10.064;2024-02-23T06:39:59;7.95;;;1.27;;
3653;SDS011;70277;54.302;10.064;2024-02-23T06:42:25;3.13;;;0.75;;
3653;SDS011;70277;54.302;10.064;2024-02-23T06:44:52;7.70;;;1.50;;
3653;SDS011;70277;54.302;10.064;2024-02-23T06:47:20;3.03;;;0.93;;
3653;SDS011;70277;54.302;10.064;2024-02-23T06:49:46;6.18;;;1.38;;
3653;SDS011;70277;54.302;10.064;2024-02-23T06:52:13;5.25;;;1.50;;
3653;SDS011;70277;54.302;10.064;2024-02-23T06:54:40;5.85;;;1.38;;
3653;SDS011;70277;54.302;10.064;2024-02-23T06:57:06;7.15;;;1.42;;
3653;SDS011;70277;54.302;10.064;2024-02-23T06:59:33;2.50;;;1.10;;
3653;SDS011;70277;54.302;10.064;2024-02-23T07:02:00;4.25;;;1.45;;
3653;SDS011;70277;54.302;10.064;2024-02-23T07:04:26;5.55;;;1.23;;
3653;SDS011;70277;54.302;10.064;2024-02-23T07:06:55;4.82;;;1.48;;
3653;SDS011;70277;54.302;10.064;2024-02-23T07:09:21;9.45;;;1.58;;
3653;SDS011;70277;54.302;10.064;2024-02-23T07:11:48;4.85;;;1.20;;
3653;SDS011;70277;54.302;10.064;2024-02-23T07:14:14;3.00;;;0.98;;
3653;SDS011;70277;54.302;10.064;2024-02-23T07:16:43;3.33;;;1.13;;
3653;SDS011;70277;54.302;10.064;2024-02-23T07:19:09;2.40;;;1.08;;
3653;SDS011;70277;54.302;10.064;2024-02-23T07:21:36;6.25;;;1.30;;
3653;SDS011;70277;54.302;10.064;2024-02-23T07:24:06;1.98;;;0.98;;
3653;SDS011;70277;54.302;10.064;2024-02-23T07:26:33;2.50;;;1.15;;
3653;SDS011;70277;54.302;10.064;2024-02-23T07:29:00;5.72;;;1.08;;
3653;SDS011;70277;54.302;10.064;2024-02-23T07:31:26;4.53;;;1.15;;
3653;SDS011;70277;54.302;10.064;2024-02-23T07:33:53;1.98;;;0.90;;
3653;SDS011;70277;54.302;10.064;2024-02-23T07:36:20;5.55;;;1.17;;
3653;SDS011;70277;54.302;10.064;2024-02-23T07:38:47;4.10;;;1.00;;
3653;SDS011;70277;54.302;10.064;2024-02-23T07:41:14;3.38;;;0.95;;
3653;SDS011;70277;54.302;10.064;2024-02-23T07:43:41;3.70;;;1.20;;
3653;SDS011;70277;54.302;10.064;2024-02-23T07:46:08;4.47;;;0.98;;
3653;SDS011;70277;54.302;10.064;2024-02-23T07:48:35;5.43;;;1.33;;
3653;SDS011;70277;54.302;10.064;2024-02-23T07:51:02;5.50;;;1.00;;
3653;SDS011;70277;54.302;10.064;2024-02-23T07:53:31;3.90;;;1.23;;
3653;SDS011;70277;54.302;10.064;2024-02-23T07:55:59;5.07;;;1.10;;
3653;SDS011;70277;54.302;10.064;2024-02-23T07:58:28;6.45;;;1.00;;
3653;SDS011;70277;54.302;10.064;2024-02-23T08:00:54;10.23;;;1.55;;
3653;SDS011;70277;54.302;10.064;2024-02-23T08:03:21;7.28;;;1.20;;
3653;SDS011;70277;54.302;10.064;2024-02-23T08:05:47;4.93;;;0.90;;
3653;SDS011;70277;54.302;10.064;2024-02-23T08:08:14;4.95;;;1.25;;
3653;SDS011;70277;54.302;10.064;2024-02-23T08:10:41;6.22;;;1.08;;
3653;SDS011;70277;54.302;10.064;2024-02-23T08:13:07;4.60;;;1.30;;
3653;SDS011;70277;54.302;10.064;2024-02-23T08:15:36;6.10;;;1.17;;
3653;SDS011;70277;54.302;10.064;2024-02-23T08:18:03;6.90;;;1.63;;
3653;SDS011;70277;54.302;10.064;2024-02-23T08:20:30;6.57;;;1.40;;
3653;SDS011;70277;54.302;10.064;2024-02-23T08:22:56;4.60;;;1.33;;
3653;SDS011;70277;54.302;10.064;2024-02-23T08:25:23;8.40;;;1.23;;
3653;SDS011;70277;54.302;10.064;2024-02-23T08:27:49;4.15;;;1.60;;
3653;SDS011;70277;54.302;10.064;2024-02-23T08:30:16;5.72;;;1.38;;
3653;SDS011;70277;54.302;10.064;2024-02-23T08:32:42;2.58;;;1.27;;
3653;SDS011;70277;54.302;10.064;2024-02-23T08:35:09;6.45;;;1.48;;
3653;SDS011;70277;54.302;10.064;2024-02-23T08:37:36;5.93;;;1.42;;
3653;SDS011;70277;54.302;10.064;2024-02-23T08:40:03;7.20;;;1.38;;
3653;SDS011;70277;54.302;10.064;2024-02-23T08:42:30;8.93;;;1.60;;
3653;SDS011;70277;54.302;10.064;2024-02-23T08:44:56;6.15;;;1.65;;
3653;SDS011;70277;54.302;10.064;2024-02-23T08:47:23;9.43;;;1.60;;
3653;SDS011;70277;54.302;10.064;2024-02-23T08:49:50;5.15;;;1.50;;
3653;SDS011;70277;54.302;10.064;2024-02-23T08:52:17;8.48;;;1.65;;
3653;SDS011;70277;54.302;10.064;2024-02-23T08:54:43;9.00;;;1.75;;
3653;SDS011;70277;54.302;10.064;2024-02-23T08:57:10;5.43;;;2.03;;
3653;SDS011;70277;54.302;10.064;2024-02-23T08:59:36;4.93;;;1.90;;
3653;SDS011;70277;54.302;10.064;2024-02-23T09:02:03;6.82;;;1.60;;
3653;SDS011;70277;54.302;10.064;2024-02-23T09:04:30;8.82;;;1.77;;
3653;SDS011;70277;54.302;10.064;2024-02-23T09:06:56;4.30;;;1.73;;
3653;SDS011;70277;54.302;10.064;2024-02-23T09:09:23;2.63;;;1.48;;
3653;SDS011;70277;54.302;10.064;2024-02-23T09:11:51;2.53;;;1.67;;
3653;SDS011;70277;54.302;10.064;2024-02-23T09:14:18;4.07;;;1.58;;
3653;SDS011;70277;54.302;10.064;2024-02-23T09:16:44;10.68;;;1.60;;
3653;SDS011;70277;54.302;10.064;2024-02-23T09:19:14;7.13;;;1.67;;
3653;SDS011;70277;54.302;10.064;2024-02-23T09:21:41;7.03;;;1.55;;
3653;SDS011;70277;54.302;10.064;2024-02-23T09:24:07;3.22;;;1.40;;
3653;SDS011;70277;54.302;10.064;2024-02-23T09:26:34;5.47;;;1.67;;
3653;SDS011;70277;54.302;10.064;2024-02-23T09:29:01;2.80;;;1.23;;
3653;SDS011;70277;54.302;10.064;2024-02-23T09:31:27;4.25;;;1.30;;
3653;SDS011;70277;54.302;10.064;2024-02-23T09:33:57;3.50;;;1.42;;
3653;SDS011;70277;54.302;10.064;2024-02-23T09:36:24;5.05;;;1.35;;
3653;SDS011;70277;54.302;10.064;2024-02-23T09:38:50;5.25;;;1.63;;
3653;SDS011;70277;54.302;10.064;2024-02-23T09:41:21;5.40;;;1.20;;
3653;SDS011;70277;54.302;10.064;2024-02-23T09:43:49;3.58;;;1.48;;
3653;SDS011;70277;54.302;10.064;2024-02-23T09:46:17;7.05;;;1.25;;
3653;SDS011;70277;54.302;10.064;2024-02-23T09:48:44;6.95;;;1.70;;
3653;SDS011;70277;54.302;10.064;2024-02-23T09:51:11;6.47;;;1.70;;
3653;SDS011;70277;54.302;10.064;2024-02-23T09:53:38;8.20;;;1.63;;
3653;SDS011;70277;54.302;10.064;2024-02-23T09:56:05;6.85;;;1.60;;
3653;SDS011;70277;54.302;10.064;2024-02-23T09:58:32;5.97;;;1.45;;
3653;SDS011;70277;54.302;10.064;2024-02-23T10:01:02;11.05;;;1.75;;
3653;SDS011;70277;54.302;10.064;2024-02-23T10:03:30;7.80;;;1.30;;
3653;SDS011;70277;54.302;10.064;2024-02-23T10:05:57;5.18;;;1.40;;
3653;SDS011;70277;54.302;10.064;2024-02-23T10:08:24;4.80;;;1.40;;
3653;SDS011;70277;54.302;10.064;2024-02-23T10:10:50;6.15;;;1.30;;
3653;SDS011;70277;54.302;10.064;2024-02-23T10:13:18;11.35;;;1.60;;
3653;SDS011;70277;54.302;10.064;2024-02-23T10:15:55;2.85;;;1.08;;
3653;SDS011;70277;54.302;10.064;2024-02-23T10:18:40;6.20;;;1.48;;
3653;SDS011;70277;54.302;10.064;2024-02-23T10:21:06;4.57;;;1.58;;
3653;SDS011;70277;54.302;10.064;2024-02-23T10:23:33;10.43;;;1.88;;
3653;SDS011;70277;54.302;10.064;2024-02-23T10:26:07;5.22;;;1.50;;
3653;SDS011;70277;54.302;10.064;2024-02-23T10:28:37;3.92;;;1.02;;
3653;SDS011;70277;54.302;10.064;2024-02-23T10:31:06;3.30;;;1.38;;
3653;SDS011;70277;54.302;10.064;2024-02-23T10:33:37;7.78;;;1.52;;
3653;SDS011;70277;54.302;10.064;2024-02-23T10:36:05;6.38;;;1.52;;
3653;SDS011;70277;54.302;10.064;2024-02-23T10:38:34;6.20;;;1.13;;
3653;SDS011;70277;54.302;10.064;2024-02-23T10:41:04;7.20;;;1.40;;
3653;SDS011;70277;54.302;10.064;2024-02-23T10:43:33;9.77;;;1.52;;
3653;SDS011;70277;54.302;10.064;2024-02-23T10:46:07;8.73;;;1.33;;
3653;SDS011;70277;54.302;10.064;2024-02-23T10:48:40;5.10;;;1.33;;
3653;SDS011;70277;54.302;10.064;2024-02-23T10:51:08;5.57;;;1.15;;
3653;SDS011;70277;54.302;10.064;2024-02-23T10:53:40;8.18;;;1.65;;
3653;SDS011;70277;54.302;10.064;2024-02-23T10:56:07;2.53;;;1.00;;
3653;SDS011;70277;54.302;10.064;2024-02-23T10:58:34;5.53;;;1.50;;
3653;SDS011;70277;54.302;10.064;2024-02-23T11:01:01;5.57;;;1.35;;
3653;SDS011;70277;54.302;10.064;2024-02-23T11:03:30;5.57;;;1.02;;
3653;SDS011;70277;54.302;10.064;2024-02-23T11:05:59;6.25;;;1.17;;
3653;SDS011;70277;54.302;10.064;2024-02-23T11:08:29;5.22;;;1.40;;
3653;SDS011;70277;54.302;10.064;2024-02-23T11:10:56;5.27;;;1.30;;
3653;SDS011;70277;54.302;10.064;2024-02-23T11:13:29;5.72;;;1.25;;
3653;SDS011;70277;54.302;10.064;2024-02-23T11:16:03;1.30;;;0.75;;
3653;SDS011;70277;54.302;10.064;2024-02-23T11:18:31;4.05;;;1.50;;
3653;SDS011;70277;54.302;10.064;2024-02-23T11:21:00;6.43;;;1.17;;
3653;SDS011;70277;54.302;10.064;2024-02-23T11:23:40;4.85;;;1.17;;
3653;SDS011;70277;54.302;10.064;2024-02-23T11:26:12;10.77;;;1.58;;
3653;SDS011;70277;54.302;10.064;2024-02-23T11:28:49;4.97;;;1.27;;
3653;SDS011;70277;54.302;10.064;2024-02-23T11:31:22;6.07;;;1.17;;
3653;SDS011;70277;54.302;10.064;2024-02-23T11:33:50;4.93;;;0.90;;
3653;SDS011;70277;54.302;10.064;2024-02-23T11:38:59;9.00;;;1.52;;
3653;SDS011;70277;54.302;10.064;2024-02-23T11:41:27;4.13;;;1.40;;
3653;SDS011;70277;54.302;10.064;2024-02-23T11:43:55;4.45;;;1.35;;
3653;SDS011;70277;54.302;10.064;2024-02-23T11:46:22;4.55;;;1.30;;
3653;SDS011;70277;54.302;10.064;2024-02-23T11:48:49;7.78;;;0.82;;
3653;SDS011;70277;54.302;10.064;2024-02-23T11:51:22;6.90;;;1.48;;
3653;SDS011;70277;54.302;10.064;2024-02-23T11:53:52;7.47;;;1.45;;
3653;SDS011;70277;54.302;10.064;2024-02-23T11:56:22;7.47;;;1.30;;
3653;SDS011;70277;54.302;10.064;2024-02-23T11:58:49;5.97;;;1.70;;
3653;SDS011;70277;54.302;10.064;2024-02-23T12:01:15;5.55;;;1.20;;
3653;SDS011;70277;54.302;10.064;2024-02-23T12:03:42;4.93;;;0.80;;
3653;SDS011;70277;54.302;10.064;2024-02-23T12:06:10;7.45;;;1.17;;
3653;SDS011;70277;54.302;10.064;2024-02-23T12:08:37;5.95;;;1.17;;
3653;SDS011;70277;54.302;10.064;2024-02-23T12:11:05;7.88;;;2.08;;
3653;SDS011;70277;54.302;10.064;2024-02-23T12:13:36;3.55;;;0.98;;
3653;SDS011;70277;54.302;10.064;2024-02-23T12:16:03;2.78;;;0.90;;
3653;SDS011;70277;54.302;10.064;2024-02-23T12:18:32;2.13;;;0.80;;
3653;SDS011;70277;54.302;10.064;2024-02-23T12:21:00;3.47;;;1.10;;
3653;SDS011;70277;54.302;10.064;2024-02-23T12:23:40;3.97;;;0.85;;
3653;SDS011;70277;54.302;10.064;2024-02-23T12:26:08;5.68;;;0.93;;
3653;SDS011;70277;54.302;10.064;2024-02-23T12:28:35;4.35;;;1.00;;
3653;SDS011;70277;54.302;10.064;2024-02-23T12:31:03;6.95;;;1.38;;
3653;SDS011;70277;54.302;10.064;2024-02-23T12:33:31;4.63;;;0.80;;
3653;SDS011;70277;54.302;10.064;2024-02-23T12:35:58;4.63;;;0.90;;
3653;SDS011;70277;54.302;10.064;2024-02-23T12:38:25;4.68;;;0.75;;
3653;SDS011;70277;54.302;10.064;2024-02-23T12:40:52;4.63;;;0.80;;
3653;SDS011;70277;54.302;10.064;2024-02-23T12:43:19;7.55;;;1.25;;
3653;SDS011;70277;54.302;10.064;2024-02-23T12:45:50;4.97;;;1.15;;
3653;SDS011;70277;54.302;10.064;2024-02-23T12:48:18;4.32;;;1.25;;
3653;SDS011;70277;54.302;10.064;2024-02-23T12:50:46;4.28;;;1.13;;
3653;SDS011;70277;54.302;10.064;2024-02-23T12:53:33;7.90;;;1.00;;
3653;SDS011;70277;54.302;10.064;2024-02-23T12:56:02;2.88;;;1.10;;
3653;SDS011;70277;54.302;10.064;2024-02-23T12:58:37;4.88;;;1.25;;
3653;SDS011;70277;54.302;10.064;2024-02-23T13:01:05;7.28;;;1.15;;
3653;SDS011;70277;54.302;10.064;2024-02-23T13:03:33;2.67;;;0.98;;
3653;SDS011;70277;54.302;10.064;2024-02-23T13:06:01;9.90;;;1.15;;
3653;SDS011;70277;54.302;10.064;2024-02-23T13:08:28;3.92;;;1.13;;
3653;SDS011;70277;54.302;10.064;2024-02-23T13:10:56;2.95;;;1.15;;
3653;SDS011;70277;54.302;10.064;2024-02-23T13:13:23;2.25;;;1.02;;
3653;SDS011;70277;54.302;10.064;2024-02-23T13:15:51;3.55;;;0.90;;
3653;SDS011;70277;54.302;10.064;2024-02-23T13:18:19;1.48;;;1.00;;
3653;SDS011;70277;54.302;10.064;2024-02-23T13:20:46;7.05;;;1.75;;
3653;SDS011;70277;54.302;10.064;2024-02-23T13:23:12;2.65;;;0.80;;
3653;SDS011;70277;54.302;10.064;2024-02-23T13:25:39;4.03;;;1.17;;
3653;SDS011;70277;54.302;10.064;2024-02-23T13:28:07;2.75;;;0.70;;
3653;SDS011;70277;54.302;10.064;2024-02-23T13:30:34;4.55;;;1.27;;
3653;SDS011;70277;54.302;10.064;2024-02-23T13:33:03;5.10;;;1.35;;
3653;SDS011;70277;54.302;10.064;2024-02-23T13:35:30;2.28;;;1.13;;
3653;SDS011;70277;54.302;10.064;2024-02-23T13:37:57;2.00;;;0.93;;
3653;SDS011;70277;54.302;10.064;2024-02-23T13:40:24;5.53;;;1.23;;
3653;SDS011;70277;54.302;10.064;2024-02-23T13:42:50;1.38;;;0.80;;
3653;SDS011;70277;54.302;10.064;2024-02-23T13:45:18;1.08;;;0.82;;
3653;SDS011;70277;54.302;10.064;2024-02-23T13:47:55;6.82;;;1.00;;
3653;SDS011;70277;54.302;10.064;2024-02-23T13:50:23;3.53;;;1.15;;
3653;SDS011;70277;54.302;10.064;2024-02-23T13:52:50;5.88;;;1.10;;
3653;SDS011;70277;54.302;10.064;2024-02-23T13:55:16;1.55;;;0.70;;
3653;SDS011;70277;54.302;10.064;2024-02-23T13:57:43;2.55;;;0.93;;
3653;SDS011;70277;54.302;10.064;2024-02-23T14:00:10;2.83;;;0.75;;
3653;SDS011;70277;54.302;10.064;2024-02-23T14:02:39;1.42;;;0.60;;
3653;SDS011;70277;54.302;10.064;2024-02-23T14:05:09;2.42;;;0.70;;
3653;SDS011;70277;54.302;10.064;2024-02-23T14:07:35;9.63;;;0.95;;
3653;SDS011;70277;54.302;10.064;2024-02-23T14:10:02;0.80;;;0.80;;
3653;SDS011;70277;54.302;10.064;2024-02-23T14:12:29;4.38;;;1.08;;
3653;SDS011;70277;54.302;10.064;2024-02-23T14:14:56;0.95;;;0.82;;
3653;SDS011;70277;54.302;10.064;2024-02-23T14:17:23;4.88;;;1.02;;
3653;SDS011;70277;54.302;10.064;2024-02-23T14:19:49;3.20;;;0.90;;
3653;SDS011;70277;54.302;10.064;2024-02-23T14:22:17;3.10;;;0.80;;
3653;SDS011;70277;54.302;10.064;2024-02-23T14:24:44;2.10;;;0.77;;
3653;SDS011;70277;54.302;10.064;2024-02-23T14:27:10;2.42;;;0.93;;
3653;SDS011;70277;54.302;10.064;2024-02-23T14:29:37;3.65;;;0.80;;
3653;SDS011;70277;54.302;10.064;2024-02-23T14:32:04;1.58;;;1.02;;
3653;SDS011;70277;54.302;10.064;2024-02-23T14:34:31;3.58;;;0.93;;
3653;SDS011;70277;54.302;10.064;2024-02-23T14:36:59;3.08;;;1.00;;
3653;SDS011;70277;54.302;10.064;2024-02-23T14:39:26;2.92;;;0.90;;
3653;SDS011;70277;54.302;10.064;2024-02-23T14:41:53;3.80;;;1.27;;
3653;SDS011;70277;54.302;10.064;2024-02-23T14:44:20;2.58;;;1.02;;
3653;SDS011;70277;54.302;10.064;2024-02-23T14:46:46;5.13;;;1.27;;
3653;SDS011;70277;54.302;10.064;2024-02-23T14:49:13;4.75;;;0.88;;
3653;SDS011;70277;54.302;10.064;2024-02-23T14:51:39;3.45;;;0.80;;
3653;SDS011;70277;54.302;10.064;2024-02-23T14:54:09;1.95;;;0.90;;
3653;SDS011;70277;54.302;10.064;2024-02-23T14:56:35;2.88;;;0.82;;